Time;durP1;ratioP1;P1;durP2;ratioP2;P2;SDS_P1;SDS_P2;PMS_P1;PMS_P2;Temp;Humidity;BMP_temperature;BMP_pressure;BME280_temperature;BME280_humidity;BME280_pressure;Samples;Min_cycle;Max_cycle;Signal;HPM_P1;HPM_P2
2023/08/20 00:04:07;;;;;;;;;;;;;;;17.09;92.18848;102121.6;;;;-82
2023/08/20 00:09:08;;;;;;;;;;;;;;;17.19;91.8623;102138.1;;;;-81
2023/08/20 00:14:06;;;;;;;;;;;;;;;17.3;91.51758;102140.4;;;;-80
2023/08/20 00:17:42;;;;;;;8;2.2;;;;;;;;;;;;;-81
2023/08/20 00:19:06;;;;;;;;;;;;;;;17.39;90.76172;102134.9;;;;-80
2023/08/20 00:24:07;;;;;;;;;;;;;;;17.46;89.87988;102138.2;;;;-80
2023/08/20 00:29:09;;;;;;;;;;;;;;;17.45;89.33789;102139.9;;;;-80
2023/08/20 00:34:06;;;;;;;;;;;;;;;17.37;89.60352;102134;;;;-79
2023/08/20 00:39:06;;;;;;;;;;;;;;;17.29;89.65234;102137.7;;;;-79
2023/08/20 00:44:06;;;;;;;;;;;;;;;17.26;90.15332;102154.6;;;;-80
2023/08/20 00:47:44;;;;;;;7.8;2.3;;;;;;;;;;;;;-79
2023/08/20 00:49:06;;;;;;;;;;;;;;;17.22;90.78418;102161.4;;;;-78
2023/08/20 00:54:06;;;;;;;;;;;;;;;17.19;91.40332;102173;;;;-80
2023/08/20 00:59:06;;;;;;;;;;;;;;;17.13;91.8291;102186.9;;;;-80
2023/08/20 01:04:10;;;;;;;;;;;;;;;17.06;92.00391;102189.7;;;;-79
2023/08/20 01:09:11;;;;;;;;;;;;;;;17.02;92.43359;102179.3;;;;-80
2023/08/20 01:14:06;;;;;;;;;;;;;;;16.97;92.70117;102184.8;;;;-78
2023/08/20 01:17:46;;;;;;;9.1;2.1;;;;;;;;;;;;;-81
2023/08/20 01:19:06;;;;;;;;;;;;;;;16.87;94.08789;102192.9;;;;-80
2023/08/20 01:24:14;;;;;;;;;;;;;;;16.82;94.19141;102186.7;;;;-80
2023/08/20 01:29:06;;;;;;;;;;;;;;;16.82;93.74414;102192.9;;;;-80
2023/08/20 01:34:06;;;;;;;;;;;;;;;16.82;94.0127;102189.6;;;;-79
2023/08/20 01:39:07;;;;;;;;;;;;;;;16.81;94.26563;102183.5;;;;-79
2023/08/20 01:44:07;;;;;;;;;;;;;;;16.78;94.59766;102181.7;;;;-80
2023/08/20 01:47:48;;;;;;;10.5;2.4;;;;;;;;;;;;;-78
2023/08/20 01:49:06;;;;;;;;;;;;;;;16.75;94.95898;102171.5;;;;-79
2023/08/20 01:54:06;;;;;;;;;;;;;;;16.64;95.63672;102158.4;;;;-80
2023/08/20 01:59:06;;;;;;;;;;;;;;;16.65;96.05371;102169.5;;;;-78
2023/08/20 02:04:06;;;;;;;;;;;;;;;16.58;96.78613;102173.4;;;;-80
2023/08/20 02:09:06;;;;;;;;;;;;;;;16.49;97.4248;102166.9;;;;-79
2023/08/20 02:14:06;;;;;;;;;;;;;;;16.48;97.80469;102172.9;;;;-79
2023/08/20 02:17:51;;;;;;;9.2;2.3;;;;;;;;;;;;;-78
2023/08/20 02:19:06;;;;;;;;;;;;;;;16.45;97.97461;102173.3;;;;-80
2023/08/20 02:24:06;;;;;;;;;;;;;;;16.39;99.5127;102172;;;;-79
2023/08/20 02:29:06;;;;;;;;;;;;;;;16.38;100;102165.1;;;;-78
2023/08/20 02:34:06;;;;;;;;;;;;;;;16.36;100;102167.4;;;;-79
2023/08/20 02:39:07;;;;;;;;;;;;;;;16.26;100;102172.8;;;;-78
2023/08/20 02:44:06;;;;;;;;;;;;;;;16.16;100;102168.7;;;;-80
2023/08/20 02:47:54;;;;;;;13;2.9;;;;;;;;;;;;;-79
2023/08/20 02:49:06;;;;;;;;;;;;;;;16.06;100;102168;;;;-78
2023/08/20 02:54:06;;;;;;;;;;;;;;;16.01;100;102172.5;;;;-80
2023/08/20 02:59:07;;;;;;;;;;;;;;;15.95;100;102180.7;;;;-80
2023/08/20 03:04:06;;;;;;;;;;;;;;;15.91;100;102188.2;;;;-80
2023/08/20 03:09:06;;;;;;;;;;;;;;;15.91;100;102191.1;;;;-78
2023/08/20 03:14:06;;;;;;;;;;;;;;;15.93;100;102194.1;;;;-79
2023/08/20 03:17:56;;;;;;;16.1;3.3;;;;;;;;;;;;;-78
2023/08/20 03:19:06;;;;;;;;;;;;;;;15.92;100;102202.3;;;;-78
2023/08/20 03:24:06;;;;;;;;;;;;;;;15.88;100;102206.1;;;;-80
2023/08/20 03:29:07;;;;;;;;;;;;;;;15.79;100;102209.9;;;;-78
2023/08/20 03:34:08;;;;;;;;;;;;;;;15.7;100;102212.4;;;;-80
2023/08/20 03:39:06;;;;;;;;;;;;;;;15.62;100;102213.7;;;;-80
2023/08/20 03:44:06;;;;;;;;;;;;;;;15.55;100;102215.3;;;;-80
2023/08/20 03:47:59;;;;;;;16.3;4.3;;;;;;;;;;;;;-79
2023/08/20 03:49:06;;;;;;;;;;;;;;;15.49;100;102226;;;;-79
2023/08/20 03:54:06;;;;;;;;;;;;;;;15.47;100;102226;;;;-80
2023/08/20 03:59:06;;;;;;;;;;;;;;;15.43;100;102228.7;;;;-81
2023/08/20 04:04:06;;;;;;;;;;;;;;;15.41;100;102225.4;;;;-79
2023/08/20 04:09:06;;;;;;;;;;;;;;;15.41;100;102228.3;;;;-78
2023/08/20 04:14:06;;;;;;;;;;;;;;;15.5;100;102228.7;;;;-80
2023/08/20 04:18:01;;;;;;;21.9;4.2;;;;;;;;;;;;;-79
2023/08/20 04:19:06;;;;;;;;;;;;;;;15.55;100;102231.9;;;;-78
2023/08/20 04:24:06;;;;;;;;;;;;;;;15.52;100;102233.8;;;;-79
2023/08/20 04:29:06;;;;;;;;;;;;;;;15.49;100;102238.8;;;;-80
2023/08/20 04:34:06;;;;;;;;;;;;;;;15.49;100;102243;;;;-79
2023/08/20 04:39:06;;;;;;;;;;;;;;;15.5;100;102240.9;;;;-79
2023/08/20 04:44:06;;;;;;;;;;;;;;;15.54;100;102242.3;;;;-80
2023/08/20 04:48:04;;;;;;;27.3;4.7;;;;;;;;;;;;;-79
2023/08/20 04:49:06;;;;;;;;;;;;;;;15.6;100;102236.7;;;;-79
2023/08/20 04:54:06;;;;;;;;;;;;;;;15.63;100;102235.5;;;;-79
2023/08/20 04:59:06;;;;;;;;;;;;;;;15.68;100;102236.7;;;;-80
2023/08/20 05:04:06;;;;;;;;;;;;;;;15.69;100;102232.7;;;;-81
2023/08/20 05:09:07;;;;;;;;;;;;;;;15.7;100;102231.2;;;;-81
2023/08/20 05:14:06;;;;;;;;;;;;;;;15.71;100;102237.1;;;;-79
2023/08/20 05:18:07;;;;;;;19.8;4.7;;;;;;;;;;;;;-79
2023/08/20 05:19:06;;;;;;;;;;;;;;;15.71;100;102237.4;;;;-80
2023/08/20 05:24:06;;;;;;;;;;;;;;;15.73;100;102235.7;;;;-80
2023/08/20 05:29:06;;;;;;;;;;;;;;;15.76;100;102240.9;;;;-79
2023/08/20 05:34:06;;;;;;;;;;;;;;;15.81;100;102254.2;;;;-79
2023/08/20 05:39:06;;;;;;;;;;;;;;;15.85;100;102263.3;;;;-79
2023/08/20 05:44:06;;;;;;;;;;;;;;;15.93;100;102258.2;;;;-79
2023/08/20 05:48:10;;;;;;;19.8;4.8;;;;;;;;;;;;;-80
2023/08/20 05:49:06;;;;;;;;;;;;;;;16.64;100;102255.3;;;;-79
2023/08/20 05:54:06;;;;;;;;;;;;;;;17.89;100;102260.8;;;;-79
2023/08/20 05:59:06;;;;;;;;;;;;;;;18.65;99.08594;102262.8;;;;-80
2023/08/20 06:04:06;;;;;;;;;;;;;;;19.18;94.84668;102254.6;;;;-79
2023/08/20 06:09:06;;;;;;;;;;;;;;;19.49;91.73047;102253.4;;;;-80
2023/08/20 06:14:06;;;;;;;;;;;;;;;19.83;90.2002;102262.3;;;;-80
2023/08/20 06:18:13;;;;;;;15.5;3.5;;;;;;;;;;;;;-79
2023/08/20 06:19:06;;;;;;;;;;;;;;;20.18;89.51563;102263;;;;-80
2023/08/20 06:24:09;;;;;;;;;;;;;;;20.3;88.21875;102258.4;;;;-80
2023/08/20 06:29:06;;;;;;;;;;;;;;;20.4;87.82129;102252.1;;;;-80
2023/08/20 06:34:06;;;;;;;;;;;;;;;20.68;87.2998;102258.9;;;;-79
2023/08/20 06:39:06;;;;;;;;;;;;;;;21.06;85.33789;102264.7;;;;-81
2023/08/20 06:44:06;;;;;;;;;;;;;;;21.08;83.56445;102263.9;;;;-80
2023/08/20 06:48:19;;;;;;;11;2.8;;;;;;;;;;;;;-80
2023/08/20 06:49:06;;;;;;;;;;;;;;;21.18;83.02832;102266;;;;-80
2023/08/20 06:54:06;;;;;;;;;;;;;;;21.3;81.81543;102270.4;;;;-79
2023/08/20 06:59:06;;;;;;;;;;;;;;;21.67;81.5752;102271.5;;;;-79
2023/08/20 07:04:06;;;;;;;;;;;;;;;21.96;79.7207;102265.5;;;;-80
2023/08/20 07:09:06;;;;;;;;;;;;;;;21.77;78.77832;102288.9;;;;-80
2023/08/20 07:14:06;;;;;;;;;;;;;;;21.9;77.75488;102290.9;;;;-78
2023/08/20 07:18:20;;;;;;;12.6;2.5;;;;;;;;;;;;;-80
2023/08/20 07:19:06;;;;;;;;;;;;;;;22.12;77.9082;102287.7;;;;-81
2023/08/20 07:24:06;;;;;;;;;;;;;;;22.26;75.77051;102295.1;;;;-80
2023/08/20 07:29:06;;;;;;;;;;;;;;;22.11;75.79199;102292.7;;;;-80
2023/08/20 07:34:07;;;;;;;;;;;;;;;22.12;77.22461;102304.2;;;;-80
2023/08/20 07:39:06;;;;;;;;;;;;;;;22.04;78.34863;102312.9;;;;-81
2023/08/20 07:44:06;;;;;;;;;;;;;;;22.27;77.6377;102321;;;;-80
2023/08/20 07:48:27;;;;;;;14.3;3.4;;;;;;;;;;;;;-83
2023/08/20 07:49:06;;;;;;;;;;;;;;;22.44;76.0293;102323.4;;;;-80
2023/08/20 07:54:07;;;;;;;;;;;;;;;22.49;75.74023;102326.5;;;;-80
2023/08/20 07:59:06;;;;;;;;;;;;;;;22.23;74.58203;102324.9;;;;-78
2023/08/20 08:04:06;;;;;;;;;;;;;;;22.19;73.7793;102323.4;;;;-78
2023/08/20 08:09:17;;;;;;;;;;;;;;;21.9;73.69727;102329.5;;;;-80
2023/08/20 08:14:07;;;;;;;;;;;;;;;22.13;74.17773;102327.8;;;;-79
2023/08/20 08:18:28;;;;;;;8.6;1.9;;;;;;;;;;;;;-80
2023/08/20 08:19:06;;;;;;;;;;;;;;;22.12;74.40527;102329.5;;;;-81
2023/08/20 08:24:06;;;;;;;;;;;;;;;22.71;72.96387;102335.1;;;;-81
2023/08/20 08:29:06;;;;;;;;;;;;;;;22.85;70.56836;102330.1;;;;-80
2023/08/20 08:34:06;;;;;;;;;;;;;;;22.78;69.37012;102344.3;;;;-81
2023/08/20 08:39:07;;;;;;;;;;;;;;;22.55;68.63867;102348.1;;;;-81
2023/08/20 08:44:06;;;;;;;;;;;;;;;22.95;68.00293;102344.4;;;;-81
2023/08/20 08:48:32;;;;;;;9.8;2;;;;;;;;;;;;;-79
2023/08/20 08:49:08;;;;;;;;;;;;;;;22.9;68.11035;102347.9;;;;-78
2023/08/20 08:54:06;;;;;;;;;;;;;;;23.08;68.94824;102349.5;;;;-83
2023/08/20 08:59:06;;;;;;;;;;;;;;;23.22;67.1416;102357.2;;;;-81
2023/08/20 09:04:09;;;;;;;;;;;;;;;23.45;66.2832;102363.7;;;;-79
2023/08/20 09:09:11;;;;;;;;;;;;;;;23.85;66.2041;102362.5;;;;-81
2023/08/20 09:14:06;;;;;;;;;;;;;;;23.44;64.54199;102363.1;;;;-80
2023/08/20 09:18:37;;;;;;;9.5;1.8;;;;;;;;;;;;;-80
2023/08/20 09:24:06;;;;;;;;;;;;;;;23.7;65.93164;102362.7;;;;-80
2023/08/20 09:29:15;;;;;;;;;;;;;;;23.63;62.29004;102373.2;;;;-80
2023/08/20 09:34:06;;;;;;;;;;;;;;;24.04;63.45801;102368.7;;;;-79
2023/08/20 09:39:06;;;;;;;;;;;;;;;23.99;62.95801;102358.2;;;;-80
2023/08/20 09:44:08;;;;;;;;;;;;;;;24.39;60.91309;102376.7;;;;-81
2023/08/20 09:48:42;;;;;;;7.8;1.5;;;;;;;;;;;;;-80
2023/08/20 09:49:06;;;;;;;;;;;;;;;24.51;59.83789;102368.1;;;;-79
2023/08/20 09:54:11;;;;;;;;;;;;;;;24.87;58.71289;102368.3;;;;-80
2023/08/20 09:59:06;;;;;;;;;;;;;;;24.67;57.38672;102369.3;;;;-82
2023/08/20 10:04:06;;;;;;;;;;;;;;;24.61;60.36914;102372.2;;;;-80
2023/08/20 10:09:07;;;;;;;;;;;;;;;24.82;57.19922;102369.6;;;;-79
2023/08/20 10:14:06;;;;;;;;;;;;;;;25.12;57.39746;102364.3;;;;-80
2023/08/20 10:18:45;;;;;;;8;1.5;;;;;;;;;;;;;-81
2023/08/20 10:19:09;;;;;;;;;;;;;;;25.26;56.06836;102371.8;;;;-81
2023/08/20 10:24:10;;;;;;;;;;;;;;;25.71;54.7627;102373;;;;-81
2023/08/20 10:29:17;;;;;;;;;;;;;;;25.73;54.42969;102375.1;;;;-79
2023/08/20 10:34:08;;;;;;;;;;;;;;;25.9;53.18164;102373.5;;;;-81
2023/08/20 10:39:07;;;;;;;;;;;;;;;26.07;50.53125;102376.3;;;;-79
2023/08/20 10:44:06;;;;;;;;;;;;;;;25.68;49.62012;102376;;;;-81
2023/08/20 10:48:51;;;;;;;6.1;1.3;;;;;;;;;;;;;-81
2023/08/20 10:49:06;;;;;;;;;;;;;;;26.26;50.66699;102367.4;;;;-80
2023/08/20 10:54:14;;;;;;;;;;;;;;;26.74;49.87598;102373.1;;;;-81
2023/08/20 10:59:09;;;;;;;;;;;;;;;26.75;48.78809;102367.3;;;;-80
2023/08/20 11:04:07;;;;;;;;;;;;;;;26.94;48.57813;102365.4;;;;-80
2023/08/20 11:09:07;;;;;;;;;;;;;;;27.07;46.12012;102355.8;;;;-80
2023/08/20 11:14:08;;;;;;;;;;;;;;;26.85;47.62891;102361.3;;;;-83
2023/08/20 11:18:55;;;;;;;8.6;1.6;;;;;;;;;;;;;-81
2023/08/20 11:19:08;;;;;;;;;;;;;;;26.67;48.22363;102361.8;;;;-79
2023/08/20 11:24:06;;;;;;;;;;;;;;;26.85;48.64941;102356.8;;;;-80
2023/08/20 11:29:09;;;;;;;;;;;;;;;27.19;46.80566;102355.6;;;;-81
2023/08/20 11:34:06;;;;;;;;;;;;;;;27.64;45.69043;102360.8;;;;-80
2023/08/20 11:39:06;;;;;;;;;;;;;;;27.76;45.91211;102371.2;;;;-80
2023/08/20 11:44:06;;;;;;;;;;;;;;;27.96;46.83984;102370.6;;;;-80
2023/08/20 11:49:07;;;;;;;7.8;1.5;;;;;;;;;;;;;-83
2023/08/20 11:49:17;;;;;;;;;;;;;;;27.93;47.8584;102356.7;;;;-79
2023/08/20 11:54:07;;;;;;;;;;;;;;;27.92;47.72949;102363.7;;;;-82
2023/08/20 11:59:06;;;;;;;;;;;;;;;28.1;45.58594;102362.5;;;;-82
2023/08/20 12:04:10;;;;;;;;;;;;;;;27.78;43.62402;102360.7;;;;-80
2023/08/20 12:09:16;;;;;;;;;;;;;;;27.79;44.9502;102370;;;;-79
2023/08/20 12:14:06;;;;;;;;;;;;;;;28.06;45.50098;102370.3;;;;-80
2023/08/20 12:19:17;;;;;;;8.9;1;;;;;;;;;;;;;-80
2023/08/20 12:19:27;;;;;;;;;;;;;;;28.05;44.46387;102361.3;;;;-79
2023/08/20 12:24:06;;;;;;;;;;;;;;;28.02;44.36816;102382.5;;;;-80
2023/08/20 12:29:06;;;;;;;;;;;;;;;27.78;45.25098;102388.4;;;;-82
2023/08/20 12:34:06;;;;;;;;;;;;;;;27.91;44.12402;102384.9;;;;-80
2023/08/20 12:39:07;;;;;;;;;;;;;;;27.64;45.3418;102389.8;;;;-80
2023/08/20 12:44:06;;;;;;;;;;;;;;;27.55;45.05371;102380.7;;;;-80
2023/08/20 12:49:06;;;;;;;;;;;;;;;27.85;43.95508;102381.9;;;;-80
2023/08/20 12:49:16;;;;;;;5.8;1.3;;;;;;;;;;;;;-80
2023/08/20 12:54:06;;;;;;;;;;;;;;;28.22;42.25684;102382.6;;;;-80
2023/08/20 12:59:06;;;;;;;;;;;;;;;28.08;41.75391;102381.4;;;;-79
2023/08/20 13:04:06;;;;;;;;;;;;;;;28;41.96875;102385.3;;;;-80
2023/08/20 13:09:06;;;;;;;;;;;;;;;28;42.87695;102384;;;;-81
2023/08/20 13:14:06;;;;;;;;;;;;;;;27.76;42.62109;102387.2;;;;-80
2023/08/20 13:19:06;;;;;;;;;;;;;;;27.9;42.63477;102381;;;;-80
2023/08/20 13:19:16;;;;;;;5;1;;;;;;;;;;;;;-80
2023/08/20 13:24:06;;;;;;;;;;;;;;;28.04;43.10156;102378.4;;;;-81
2023/08/20 13:29:06;;;;;;;;;;;;;;;28.39;41.62012;102380.2;;;;-79
2023/08/20 13:34:06;;;;;;;;;;;;;;;28.53;41.80762;102377.6;;;;-82
2023/08/20 13:39:06;;;;;;;;;;;;;;;28.33;41.19434;102372.3;;;;-80
2023/08/20 13:44:06;;;;;;;;;;;;;;;28.66;40.40918;102370.6;;;;-81
2023/08/20 13:49:06;;;;;;;;;;;;;;;28.72;41.0791;102375.6;;;;-82
2023/08/20 13:49:21;;;;;;;4.6;0.9;;;;;;;;;;;;;-80
2023/08/20 13:54:07;;;;;;;;;;;;;;;28.48;40.80078;102369.9;;;;-80
2023/08/20 13:59:06;;;;;;;;;;;;;;;28.2;40.72852;102365.3;;;;-80
2023/08/20 14:04:06;;;;;;;;;;;;;;;27.96;41.38184;102364.2;;;;-80
2023/08/20 14:09:07;;;;;;;;;;;;;;;27.92;42.43848;102364.9;;;;-81
2023/08/20 14:14:06;;;;;;;;;;;;;;;28.42;41.89063;102364.1;;;;-80
2023/08/20 14:19:06;;;;;;;;;;;;;;;27.92;41.68164;102361.5;;;;-81
2023/08/20 14:19:27;;;;;;;3.5;0.9;;;;;;;;;;;;;-80
2023/08/20 14:24:06;;;;;;;;;;;;;;;27.51;42.44629;102370;;;;-80
2023/08/20 14:29:06;;;;;;;;;;;;;;;27.97;41.91992;102351.3;;;;-82
2023/08/20 14:34:06;;;;;;;;;;;;;;;28.16;41.79688;102359.5;;;;-80
2023/08/20 14:39:06;;;;;;;;;;;;;;;27.9;39.31641;102359.6;;;;-80
2023/08/20 14:44:06;;;;;;;;;;;;;;;27.86;40.43066;102352.6;;;;-80
2023/08/20 14:49:06;;;;;;;;;;;;;;;28.02;41.20215;102355.1;;;;-81
2023/08/20 14:49:32;;;;;;;2.5;0.6;;;;;;;;;;;;;-81
2023/08/20 14:54:06;;;;;;;;;;;;;;;28.17;39.85254;102358;;;;-80
2023/08/20 14:59:06;;;;;;;;;;;;;;;28.16;40.31738;102360;;;;-80
2023/08/20 15:04:06;;;;;;;;;;;;;;;28.08;39.82031;102359.4;;;;-79
2023/08/20 15:09:14;;;;;;;;;;;;;;;28.15;38.70801;102359.5;;;;-79
2023/08/20 15:14:06;;;;;;;;;;;;;;;28.16;40.30664;102351.9;;;;-81
2023/08/20 15:19:06;;;;;;;;;;;;;;;28.1;40.73047;102349.7;;;;-82
2023/08/20 15:19:39;;;;;;;6.3;0.8;;;;;;;;;;;;;-80
2023/08/20 15:24:06;;;;;;;;;;;;;;;28.18;42.19531;102349.6;;;;-80
2023/08/20 15:29:06;;;;;;;;;;;;;;;27.96;41.65039;102342.6;;;;-80
2023/08/20 15:34:06;;;;;;;;;;;;;;;27.57;42.35938;102342.5;;;;-80
2023/08/20 15:39:06;;;;;;;;;;;;;;;27.1;42.84961;102351.2;;;;-79
2023/08/20 15:44:06;;;;;;;;;;;;;;;27.1;43.09277;102349.3;;;;-80
2023/08/20 15:49:06;;;;;;;;;;;;;;;27.29;43.85547;102348.9;;;;-81
2023/08/20 15:49:43;;;;;;;4.2;1.1;;;;;;;;;;;;;-80
2023/08/20 15:54:06;;;;;;;;;;;;;;;26.97;44.28809;102346.9;;;;-82
2023/08/20 15:59:05;;;;;;;;;;;;;;;27.11;44.47656;102351.2;;;;-81
2023/08/20 16:04:07;;;;;;;;;;;;;;;27.06;44.78418;102349.8;;;;-82
2023/08/20 16:09:08;;;;;;;;;;;;;;;27.12;44.1875;102344;;;;-80
2023/08/20 16:14:06;;;;;;;;;;;;;;;26.82;46.16406;102349.3;;;;-81
2023/08/20 16:19:06;;;;;;;;;;;;;;;27.04;45.78125;102341.7;;;;-80
2023/08/20 16:19:49;;;;;;;7.4;1.4;;;;;;;;;;;;;-79
2023/08/20 16:24:06;;;;;;;;;;;;;;;26.82;45.70117;102340.3;;;;-82
2023/08/20 16:29:06;;;;;;;;;;;;;;;26.78;44.65234;102338.6;;;;-80
2023/08/20 16:34:08;;;;;;;;;;;;;;;26.77;45.46387;102344.8;;;;-79
2023/08/20 16:39:06;;;;;;;;;;;;;;;26.44;45.76563;102344.7;;;;-79
2023/08/20 16:44:06;;;;;;;;;;;;;;;26.3;45.9834;102344.2;;;;-79
2023/08/20 16:49:06;;;;;;;;;;;;;;;26.16;44.5332;102346.5;;;;-81
2023/08/20 16:49:55;;;;;;;4.6;1.1;;;;;;;;;;;;;-80
2023/08/20 16:54:07;;;;;;;;;;;;;;;26.11;45.88281;102344.8;;;;-79
2023/08/20 16:59:06;;;;;;;;;;;;;;;26.11;45.47754;102343.2;;;;-79
2023/08/20 17:04:06;;;;;;;;;;;;;;;26.25;45.88672;102346.4;;;;-81
2023/08/20 17:09:07;;;;;;;;;;;;;;;26.32;45.68457;102340.7;;;;-81
2023/08/20 17:14:08;;;;;;;;;;;;;;;26.11;46.37012;102342.1;;;;-80
2023/08/20 17:19:06;;;;;;;;;;;;;;;26.04;46.72168;102340.4;;;;-81
2023/08/20 17:19:59;;;;;;;3.6;1.7;;;;;;;;;;;;;-80
2023/08/20 17:24:06;;;;;;;;;;;;;;;25.89;47.27246;102333.4;;;;-82
2023/08/20 17:29:06;;;;;;;;;;;;;;;25.7;47.53125;102333.1;;;;-82
2023/08/20 17:34:08;;;;;;;;;;;;;;;25.54;48.35742;102336.7;;;;-83
2023/08/20 17:39:06;;;;;;;;;;;;;;;25.4;48.48145;102346.2;;;;-81
2023/08/20 17:44:06;;;;;;;;;;;;;;;25.26;47.80664;102346.3;;;;-80
2023/08/20 17:49:06;;;;;;;;;;;;;;;24.82;48.89063;102346.4;;;;-82
2023/08/20 17:50:04;;;;;;;5.3;1.1;;;;;;;;;;;;;-81
2023/08/20 17:54:06;;;;;;;;;;;;;;;24.62;49.91895;102339.4;;;;-81
2023/08/20 17:59:06;;;;;;;;;;;;;;;24.55;50.46484;102341;;;;-79
2023/08/20 18:04:06;;;;;;;;;;;;;;;24.33;50.66895;102342.9;;;;-81
2023/08/20 18:09:06;;;;;;;;;;;;;;;23.96;50.6748;102343.9;;;;-81
2023/08/20 18:14:06;;;;;;;;;;;;;;;23.94;51.29297;102351.2;;;;-80
2023/08/20 18:19:06;;;;;;;;;;;;;;;23.8;51.32324;102350.2;;;;-81
2023/08/20 18:20:09;;;;;;;5.5;1;;;;;;;;;;;;;-80
2023/08/20 18:24:06;;;;;;;;;;;;;;;23.5;52.72656;102359.8;;;;-81
2023/08/20 18:29:06;;;;;;;;;;;;;;;23.3;55.01074;102358.1;;;;-82
2023/08/20 18:34:07;;;;;;;;;;;;;;;23.13;55.28613;102356;;;;-80
2023/08/20 18:39:12;;;;;;;;;;;;;;;22.8;56.79297;102362.5;;;;-79
2023/08/20 18:44:06;;;;;;;;;;;;;;;22.64;57.51758;102363.2;;;;-80
2023/08/20 18:49:07;;;;;;;;;;;;;;;22.47;57.83887;102361.3;;;;-81
2023/08/20 18:50:14;;;;;;;5;0.9;;;;;;;;;;;;;-80
2023/08/20 18:54:07;;;;;;;;;;;;;;;22.33;58.81543;102367.3;;;;-81
2023/08/20 18:59:07;;;;;;;;;;;;;;;22.12;59.80566;102379.4;;;;-81
2023/08/20 19:04:06;;;;;;;;;;;;;;;21.85;61.71094;102381.4;;;;-81
2023/08/20 19:09:07;;;;;;;;;;;;;;;21.65;63.7041;102384.3;;;;-80
2023/08/20 19:14:05;;;;;;;;;;;;;;;21.48;64.99023;102388;;;;-82
2023/08/20 19:19:08;;;;;;;;;;;;;;;21.4;63.88281;102394.3;;;;-80
2023/08/20 19:20:17;;;;;;;5.9;1.1;;;;;;;;;;;;;-82
2023/08/20 19:24:06;;;;;;;;;;;;;;;21.27;66.36035;102397;;;;-81
2023/08/20 19:29:06;;;;;;;;;;;;;;;21.12;66.53125;102403.2;;;;-81
2023/08/20 19:34:07;;;;;;;;;;;;;;;20.98;67.28418;102403.8;;;;-81
2023/08/20 19:39:07;;;;;;;;;;;;;;;20.85;65.60352;102398.8;;;;-81
2023/08/20 19:44:06;;;;;;;;;;;;;;;20.72;67.12012;102396.8;;;;-80
2023/08/20 19:49:07;;;;;;;;;;;;;;;20.53;68.62402;102396;;;;-81
2023/08/20 19:50:21;;;;;;;4.3;1;;;;;;;;;;;;;-81
2023/08/20 19:54:06;;;;;;;;;;;;;;;20.44;68.97559;102403.2;;;;-79
2023/08/20 19:59:08;;;;;;;;;;;;;;;20.22;71.6748;102403;;;;-82
2023/08/20 20:04:06;;;;;;;;;;;;;;;20.13;71.25195;102402.7;;;;-78
2023/08/20 20:09:07;;;;;;;;;;;;;;;20;73.82715;102404;;;;-81
2023/08/20 20:14:06;;;;;;;;;;;;;;;19.86;75.02734;102404.5;;;;-79
2023/08/20 20:19:06;;;;;;;;;;;;;;;19.76;74.89551;102406.7;;;;-81
2023/08/20 20:20:26;;;;;;;10.2;2.3;;;;;;;;;;;;;-78
2023/08/20 20:24:06;;;;;;;;;;;;;;;19.64;75.88281;102407.6;;;;-80
2023/08/20 20:29:07;;;;;;;;;;;;;;;19.58;75.13672;102416.1;;;;-80
2023/08/20 20:34:06;;;;;;;;;;;;;;;19.46;75.91016;102421;;;;-79
2023/08/20 20:39:08;;;;;;;;;;;;;;;19.29;75.71094;102410.4;;;;-81
2023/08/20 20:44:06;;;;;;;;;;;;;;;19.23;73.38281;102415.1;;;;-80
2023/08/20 20:49:06;;;;;;;;;;;;;;;19.12;76.02051;102409.5;;;;-80
2023/08/20 20:50:27;;;;;;;9.6;2.1;;;;;;;;;;;;;-78
2023/08/20 20:54:06;;;;;;;;;;;;;;;19.06;75.55762;102418.6;;;;-80
2023/08/20 20:59:06;;;;;;;;;;;;;;;18.95;76.64746;102422.5;;;;-80
2023/08/20 21:04:06;;;;;;;;;;;;;;;18.84;75.27246;102425;;;;-80
2023/08/20 21:09:06;;;;;;;;;;;;;;;18.72;79.32715;102426.2;;;;-80
2023/08/20 21:14:06;;;;;;;;;;;;;;;18.62;76.48828;102432.6;;;;-78
2023/08/20 21:19:07;;;;;;;;;;;;;;;18.53;74.73438;102435.8;;;;-79
2023/08/20 21:20:31;;;;;;;4.9;1.6;;;;;;;;;;;;;-80
2023/08/20 21:24:06;;;;;;;;;;;;;;;18.49;79.17188;102429.7;;;;-80
2023/08/20 21:29:06;;;;;;;;;;;;;;;18.4;78.7959;102429.3;;;;-80
2023/08/20 21:34:07;;;;;;;;;;;;;;;18.33;77.73438;102431.3;;;;-80
2023/08/20 21:39:06;;;;;;;;;;;;;;;18.27;80.16992;102436.3;;;;-79
2023/08/20 21:44:07;;;;;;;;;;;;;;;18.16;82.85156;102431.7;;;;-80
2023/08/20 21:49:06;;;;;;;;;;;;;;;18.04;79.58691;102435.4;;;;-79
2023/08/20 21:50:34;;;;;;;9.1;1.8;;;;;;;;;;;;;-80
2023/08/20 21:54:06;;;;;;;;;;;;;;;17.94;79.72852;102437.7;;;;-80
2023/08/20 21:59:09;;;;;;;;;;;;;;;17.9;80.31641;102434.3;;;;-81
2023/08/20 22:04:05;;;;;;;;;;;;;;;17.85;77.07617;102427.9;;;;-81
2023/08/20 22:09:06;;;;;;;;;;;;;;;17.9;84.47852;102423.5;;;;-80
2023/08/20 22:14:06;;;;;;;;;;;;;;;17.88;87.09082;102426.2;;;;-81
2023/08/20 22:19:06;;;;;;;;;;;;;;;17.85;85.5;102428.1;;;;-80
2023/08/20 22:20:36;;;;;;;7.8;2.4;;;;;;;;;;;;;-80
2023/08/20 22:24:05;;;;;;;;;;;;;;;17.81;88.08691;102425.7;;;;-81
2023/08/20 22:29:06;;;;;;;;;;;;;;;17.75;87.41406;102423.2;;;;-80
2023/08/20 22:34:06;;;;;;;;;;;;;;;17.7;87.4502;102418;;;;-79
2023/08/20 22:39:06;;;;;;;;;;;;;;;17.63;83.76465;102420;;;;-79
2023/08/20 22:44:06;;;;;;;;;;;;;;;17.54;79.74609;102418.1;;;;-80
2023/08/20 22:49:07;;;;;;;;;;;;;;;17.44;84.4248;102404.9;;;;-79
2023/08/20 22:50:40;;;;;;;8.2;2.5;;;;;;;;;;;;;-80
2023/08/20 22:54:06;;;;;;;;;;;;;;;17.45;81.50391;102416.4;;;;-80
2023/08/20 22:59:06;;;;;;;;;;;;;;;17.38;83.00879;102414.1;;;;-81
2023/08/20 23:04:06;;;;;;;;;;;;;;;17.33;89.03613;102413.4;;;;-80
2023/08/20 23:09:06;;;;;;;;;;;;;;;17.12;83.01563;102407.5;;;;-81
2023/08/20 23:14:06;;;;;;;;;;;;;;;16.96;87.20215;102407.7;;;;-80
2023/08/20 23:19:08;;;;;;;;;;;;;;;16.8;86.15332;102409.9;;;;-81
2023/08/20 23:20:42;;;;;;;3.1;1.6;;;;;;;;;;;;;-80
2023/08/20 23:24:06;;;;;;;;;;;;;;;16.7;86.45801;102415.3;;;;-80
2023/08/20 23:29:07;;;;;;;;;;;;;;;16.61;83.59473;102416.3;;;;-79
2023/08/20 23:34:06;;;;;;;;;;;;;;;16.55;83.34766;102414.2;;;;-79
2023/08/20 23:39:06;;;;;;;;;;;;;;;16.52;82.49023;102407.6;;;;-79
2023/08/20 23:44:05;;;;;;;;;;;;;;;16.49;83.06641;102409.5;;;;-79
2023/08/20 23:49:06;;;;;;;;;;;;;;;16.44;82.95508;102411.4;;;;-80
2023/08/20 23:50:44;;;;;;;5.9;2;;;;;;;;;;;;;-80
2023/08/20 23:54:06;;;;;;;;;;;;;;;16.43;88.02734;102411.4;;;;-78
2023/08/20 23:59:05;;;;;;;;;;;;;;;16.42;87.94727;102410.3;;;;-79
